createdAt,value
2019-03-12T00:04:35.263Z,1.60
2019-03-12T00:07:01.464Z,1.60
2019-03-12T00:14:20.992Z,1.50
2019-03-12T00:16:47.245Z,1.40
2019-03-12T00:19:13.699Z,1.60
2019-03-12T00:21:40.150Z,1.70
2019-03-12T00:24:06.463Z,1.60
2019-03-12T00:26:32.700Z,1.90
2019-03-12T00:28:58.954Z,1.80
2019-03-12T00:31:25.310Z,1.40
2019-03-12T00:33:51.635Z,1.70
2019-03-12T00:36:17.994Z,1.50
2019-03-12T00:38:45.048Z,1.60
2019-03-12T00:41:11.305Z,1.50
2019-03-12T00:43:38.538Z,1.40
2019-03-12T00:46:04.909Z,1.40
2019-03-12T00:48:31.294Z,1.30
2019-03-12T00:50:57.509Z,1.20
2019-03-12T00:53:23.851Z,1.10
2019-03-12T00:55:50.240Z,0.90
2019-03-12T00:58:16.477Z,1.00
2019-03-12T01:00:42.835Z,1.00
2019-03-12T01:03:09.543Z,1.00
2019-03-12T01:05:35.912Z,1.00
2019-03-12T01:08:02.232Z,0.90
2019-03-12T01:10:28.582Z,0.90
2019-03-12T01:12:55.259Z,1.00
2019-03-12T01:15:21.791Z,1.00
2019-03-12T01:17:48.010Z,1.00
2019-03-12T01:20:14.496Z,1.00
2019-03-12T01:22:41.050Z,1.00
2019-03-12T01:25:08.112Z,1.00
2019-03-12T01:27:34.363Z,0.90
2019-03-12T01:30:00.629Z,0.80
2019-03-12T01:32:26.991Z,0.70
2019-03-12T01:34:53.363Z,0.80
2019-03-12T01:37:19.963Z,0.70
2019-03-12T01:39:48.168Z,1.00
2019-03-12T01:42:14.528Z,0.80
2019-03-12T01:44:40.899Z,0.60
2019-03-12T01:47:07.262Z,0.70
2019-03-12T01:49:33.504Z,0.40
2019-03-12T01:52:00.034Z,0.50
2019-03-12T01:54:26.616Z,0.60
2019-03-12T01:59:19.672Z,0.40
2019-03-12T02:01:45.995Z,0.50
2019-03-12T02:04:12.261Z,0.60
2019-03-12T02:06:38.605Z,0.60
2019-03-12T02:09:06.211Z,0.60
2019-03-12T02:11:32.670Z,0.70
2019-03-12T02:13:59.057Z,0.80
2019-03-12T02:18:52.004Z,0.80
2019-03-12T02:21:18.477Z,0.90
2019-03-12T02:26:11.797Z,1.00
2019-03-12T02:28:38.040Z,1.00
2019-03-12T02:31:04.646Z,0.90
2019-03-12T02:33:31.267Z,1.10
2019-03-12T02:35:58.079Z,1.00
2019-03-12T02:38:24.379Z,1.00
2019-03-12T02:40:51.473Z,1.10
2019-03-12T02:43:18.225Z,1.10
2019-03-12T02:45:44.563Z,1.10
2019-03-12T02:48:10.882Z,1.10
2019-03-12T02:50:39.018Z,1.10
2019-03-12T02:53:05.652Z,1.00
2019-03-12T02:55:32.128Z,1.10
2019-03-12T02:57:58.953Z,1.00
2019-03-12T03:00:27.094Z,0.90
2019-03-12T03:02:53.627Z,0.90
2019-03-12T03:05:21.067Z,0.80
2019-03-12T03:07:55.487Z,0.80
2019-03-12T03:10:21.917Z,0.90
2019-03-12T03:12:48.448Z,0.80
2019-03-12T03:15:19.039Z,0.90
2019-03-12T03:17:45.313Z,1.00
2019-03-12T03:20:11.636Z,0.80
2019-03-12T03:22:38.413Z,1.00
2019-03-12T03:25:08.564Z,0.90
2019-03-12T03:27:37.929Z,1.00
2019-03-12T03:30:14.908Z,1.00
2019-03-12T03:32:43.085Z,1.00
2019-03-12T03:35:09.660Z,0.80
2019-03-12T03:37:36.536Z,1.00
2019-03-12T03:40:04.389Z,0.80
2019-03-12T03:42:31.600Z,1.00
2019-03-12T03:44:58.030Z,0.70
2019-03-12T03:47:24.684Z,0.80
2019-03-12T03:49:51.930Z,0.70
2019-03-12T03:52:18.777Z,0.40
2019-03-12T03:54:47.122Z,0.90
2019-03-12T03:57:15.424Z,0.60
2019-03-12T03:59:41.858Z,0.60
2019-03-12T04:02:08.256Z,0.60
2019-03-12T04:04:34.502Z,0.60
2019-03-12T04:07:00.812Z,0.40
2019-03-12T04:09:27.097Z,0.50
2019-03-12T04:11:53.683Z,0.50
2019-03-12T04:14:21.799Z,0.40
2019-03-12T04:16:51.518Z,0.40
2019-03-12T04:19:20.207Z,0.40
2019-03-12T04:21:46.779Z,0.50
2019-03-12T04:24:14.454Z,0.10
2019-03-12T04:26:40.866Z,0.50
2019-03-12T04:29:07.868Z,0.40
2019-03-12T04:31:34.846Z,0.30
2019-03-12T04:34:03.317Z,0.20
2019-03-12T04:36:30.136Z,0.30
2019-03-12T04:38:57.758Z,0.40
2019-03-12T04:41:24.328Z,0.40
2019-03-12T04:49:01.727Z,0.40
2019-03-12T04:54:13.048Z,0.10
2019-03-12T04:56:39.241Z,0.10
2019-03-12T05:01:32.145Z,0.10
2019-03-12T05:06:25.076Z,-0.20
2019-03-12T05:11:18.206Z,-0.20
2019-03-12T05:13:46.312Z,-0.30
2019-03-12T05:16:12.533Z,-0.40
2019-03-12T05:21:05.363Z,-0.30
2019-03-12T05:25:58.337Z,-0.40
2019-03-12T05:30:51.136Z,-0.20
2019-03-12T05:35:44.080Z,-0.20
2019-03-12T05:43:04.904Z,-0.20
2019-03-12T05:47:58.276Z,-0.10
2019-03-12T06:02:39.391Z,0.00
2019-03-12T06:09:58.984Z,-0.20
2019-03-12T06:12:25.455Z,-0.20
2019-03-12T06:14:51.877Z,-0.20
2019-03-12T06:19:45.059Z,-0.10
2019-03-12T06:22:12.142Z,-0.10
2019-03-12T06:24:38.675Z,-0.10
2019-03-12T06:36:58.522Z,0.50
2019-03-12T06:42:07.569Z,0.70
2019-03-12T06:58:04.660Z,1.30
2019-03-12T07:00:49.379Z,1.50
2019-03-12T07:03:17.819Z,1.60
2019-03-12T07:10:50.600Z,2.00
2019-03-12T07:13:18.791Z,1.80
2019-03-12T07:15:53.337Z,2.00
2019-03-12T07:18:30.151Z,1.80
2019-03-12T07:26:20.748Z,2.10
2019-03-12T07:28:50.631Z,2.20
2019-03-12T07:36:28.338Z,2.20
2019-03-12T07:41:32.394Z,2.20
2019-03-12T07:54:29.372Z,2.60
2019-03-12T07:57:03.876Z,2.80
2019-03-12T07:59:40.911Z,2.90
2019-03-12T08:04:53.637Z,3.10
2019-03-12T08:07:40.673Z,3.20
2019-03-12T08:10:17.193Z,3.20
2019-03-12T08:15:23.372Z,3.40
2019-03-12T08:18:10.638Z,3.40
2019-03-12T08:23:16.067Z,3.60
2019-03-12T08:25:44.344Z,3.80
2019-03-12T08:28:15.915Z,3.80
2019-03-12T08:30:50.054Z,3.80
2019-03-12T08:48:27.276Z,3.90
2019-03-12T08:53:24.011Z,3.90
2019-03-12T08:55:58.318Z,3.90
2019-03-12T08:58:41.478Z,4.00
2019-03-12T09:01:22.907Z,4.10
2019-03-12T09:04:07.525Z,4.00
2019-03-12T09:09:25.919Z,4.10
2019-03-12T09:11:58.075Z,4.20
2019-03-12T09:17:18.682Z,4.10
2019-03-12T09:20:04.825Z,4.00
2019-03-12T09:22:35.620Z,4.20
2019-03-12T09:27:53.927Z,4.20
2019-03-12T09:33:05.373Z,4.50
2019-03-12T09:38:14.924Z,4.90
2019-03-12T09:45:58.382Z,5.60
2019-03-12T09:48:30.221Z,5.80
2019-03-12T09:51:07.581Z,6.00
2019-03-12T09:53:54.842Z,6.00
2019-03-12T09:56:35.283Z,6.10
2019-03-12T09:59:05.096Z,6.10
2019-03-12T10:12:14.860Z,8.30
2019-03-12T10:20:08.460Z,8.40
2019-03-12T10:35:32.133Z,9.30
2019-03-12T11:05:10.874Z,9.30
2019-03-12T11:12:34.330Z,8.60
2019-03-12T11:19:54.204Z,8.70
2019-03-12T11:22:20.604Z,8.50
2019-03-12T11:24:47.024Z,8.40
2019-03-12T11:27:16.064Z,8.30
2019-03-12T11:46:50.872Z,8.50
2019-03-12T11:49:17.202Z,8.70
2019-03-12T11:54:10.444Z,8.20
2019-03-12T11:56:38.644Z,8.10
2019-03-12T11:59:05.262Z,8.10
2019-03-12T12:01:31.641Z,8.10
2019-03-12T12:13:46.581Z,7.70
2019-03-12T12:18:40.043Z,7.80
2019-03-12T12:21:06.640Z,7.60
2019-03-12T12:38:17.940Z,8.00
2019-03-12T12:40:48.378Z,8.40
2019-03-12T12:43:14.812Z,8.20
2019-03-12T12:48:10.317Z,8.50
2019-03-12T13:02:58.793Z,8.80
2019-03-12T13:05:25.758Z,8.60
2019-03-12T13:22:41.528Z,7.60
2019-03-12T13:30:19.776Z,7.20
2019-03-12T13:32:48.292Z,7.20
2019-03-12T13:35:16.641Z,7.10
2019-03-12T13:37:45.921Z,7.20
2019-03-12T13:40:24.140Z,7.10
2019-03-12T13:45:23.794Z,7.20
2019-03-12T13:55:12.980Z,7.60
2019-03-12T14:05:02.875Z,7.00
2019-03-12T14:09:56.495Z,6.70
2019-03-12T14:14:50.148Z,6.60
2019-03-12T14:19:44.013Z,6.70
2019-03-12T14:24:37.446Z,6.30
2019-03-12T14:29:32.675Z,6.50
2019-03-12T14:34:27.213Z,6.50
2019-03-12T14:41:48.621Z,6.60
2019-03-12T14:44:15.231Z,6.70
2019-03-12T14:54:10.474Z,6.80
2019-03-12T15:01:30.866Z,6.90
2019-03-12T15:03:57.413Z,7.00
2019-03-12T15:13:47.404Z,7.10
2019-03-12T15:21:09.860Z,7.10
2019-03-12T15:23:36.264Z,7.50
2019-03-12T15:26:03.983Z,7.00
2019-03-12T15:33:29.292Z,7.30
2019-03-12T15:38:22.721Z,7.10
2019-03-12T15:40:49.101Z,7.10
2019-03-12T15:53:05.612Z,6.30
2019-03-12T15:57:59.678Z,5.80
2019-03-12T16:02:53.189Z,5.70
2019-03-12T16:10:19.161Z,5.60
2019-03-12T16:15:13.328Z,5.60
2019-03-12T16:20:10.824Z,5.60
2019-03-12T16:22:38.248Z,5.50
2019-03-12T16:29:59.728Z,5.50
2019-03-12T16:32:29.288Z,5.60
2019-03-12T16:34:55.810Z,5.60
2019-03-12T16:39:49.766Z,5.60
2019-03-12T16:44:42.829Z,5.70
2019-03-12T16:57:01.904Z,5.40
2019-03-12T16:59:31.100Z,5.80
2019-03-12T17:09:19.199Z,6.00
2019-03-12T17:11:45.690Z,6.00
2019-03-12T17:14:12.198Z,6.10
2019-03-12T17:16:38.675Z,6.10
2019-03-12T17:21:32.867Z,6.10
2019-03-12T17:28:54.121Z,6.30
2019-03-12T17:33:47.767Z,6.20
2019-03-12T17:36:14.370Z,6.30
2019-03-12T17:48:32.932Z,6.40
2019-03-12T17:53:26.209Z,6.50
2019-03-12T17:55:52.825Z,6.60
2019-03-12T18:00:47.979Z,6.40
2019-03-12T18:03:14.591Z,6.40
2019-03-12T18:18:25.306Z,6.60
2019-03-12T18:20:51.932Z,6.70
2019-03-12T18:25:47.927Z,6.50
2019-03-12T18:28:14.534Z,6.30
2019-03-12T18:30:41.037Z,6.40
2019-03-12T18:33:10.543Z,6.20
2019-03-12T18:35:36.998Z,6.20
2019-03-12T18:38:03.654Z,6.10
2019-03-12T18:52:47.706Z,6.30
2019-03-12T18:58:00.062Z,6.20
2019-03-12T19:05:20.365Z,6.30
2019-03-12T19:08:02.786Z,6.40
2019-03-12T19:10:33.722Z,6.20
2019-03-12T19:13:01.547Z,6.30
2019-03-12T19:15:28.699Z,6.50
2019-03-12T19:17:55.332Z,6.60
2019-03-12T19:20:23.148Z,6.70
2019-03-12T19:22:51.746Z,6.70
2019-03-12T19:25:38.443Z,6.80
2019-03-12T19:30:34.029Z,6.90
2019-03-12T19:33:14.657Z,7.00
2019-03-12T19:35:43.914Z,6.50
2019-03-12T19:40:50.392Z,7.00
2019-03-12T19:43:35.062Z,7.10
2019-03-12T19:46:02.228Z,6.90
2019-03-12T19:48:29.730Z,7.10
2019-03-12T19:50:58.491Z,6.90
2019-03-12T19:53:26.313Z,6.90
2019-03-12T19:55:56.801Z,6.90
2019-03-12T19:58:23.420Z,6.90
2019-03-12T20:00:52.698Z,7.30
2019-03-12T20:03:22.578Z,7.00
2019-03-12T20:11:30.423Z,6.90
2019-03-12T20:14:43.585Z,6.70
2019-03-12T20:20:05.176Z,6.80
2019-03-12T20:25:53.692Z,6.90
2019-03-12T20:28:58.576Z,7.00
2019-03-12T20:31:59.852Z,6.90
2019-03-12T20:37:29.162Z,7.00
2019-03-12T20:40:31.368Z,6.90
2019-03-12T20:43:38.473Z,7.00
2019-03-12T20:46:14.632Z,6.90
2019-03-12T20:49:19.572Z,6.80
2019-03-12T20:52:12.181Z,7.10
2019-03-12T20:54:58.780Z,7.00
2019-03-12T20:57:45.573Z,7.10
2019-03-12T21:00:32.884Z,7.00
2019-03-12T21:03:33.747Z,6.80
2019-03-12T21:06:16.430Z,7.10
2019-03-12T21:09:23.230Z,7.50
2019-03-12T21:12:26.929Z,6.90
2019-03-12T21:15:30.464Z,6.90
2019-03-12T21:18:31.128Z,6.90
2019-03-12T21:21:26.780Z,6.90
2019-03-12T21:27:07.089Z,6.90
2019-03-12T21:29:45.498Z,7.00
2019-03-12T21:34:42.488Z,7.20
2019-03-12T21:37:10.543Z,7.00
2019-03-12T21:39:38.042Z,6.80
2019-03-12T21:52:32.297Z,6.90
2019-03-12T21:54:58.823Z,6.90
2019-03-12T21:57:25.490Z,7.00
2019-03-12T21:59:53.170Z,7.00
2019-03-12T22:02:24.392Z,6.90
2019-03-12T22:04:54.889Z,7.00
2019-03-12T22:14:47.989Z,7.00
2019-03-12T22:17:14.399Z,7.00
2019-03-12T22:19:40.809Z,7.00
2019-03-12T22:22:11.868Z,6.80
2019-03-12T22:24:41.535Z,6.60
2019-03-12T22:27:08.259Z,6.30
2019-03-12T22:29:35.623Z,5.90
2019-03-12T22:34:33.312Z,6.10
2019-03-12T22:37:01.656Z,6.20
2019-03-12T22:39:28.162Z,6.00
2019-03-12T22:41:54.537Z,6.10
2019-03-12T22:44:20.957Z,6.10
2019-03-12T22:46:49.261Z,6.10
2019-03-12T22:49:15.668Z,6.40
2019-03-12T22:54:11.273Z,6.20
2019-03-12T22:56:37.806Z,6.20
2019-03-12T22:59:04.200Z,6.20
2019-03-12T23:01:31.028Z,6.10
2019-03-12T23:06:28.716Z,6.20
2019-03-12T23:11:22.222Z,6.00
2019-03-12T23:13:50.684Z,5.90
2019-03-12T23:16:19.214Z,5.80
2019-03-12T23:18:45.811Z,5.60
2019-03-12T23:21:12.721Z,5.40
2019-03-12T23:23:39.076Z,5.70
2019-03-12T23:26:05.573Z,5.30
2019-03-12T23:28:32.134Z,5.40
2019-03-12T23:30:58.645Z,5.10
2019-03-12T23:33:26.300Z,5.30
2019-03-12T23:35:52.783Z,5.30
2019-03-12T23:38:20.428Z,5.20
2019-03-12T23:43:13.769Z,5.40
2019-03-12T23:45:40.504Z,5.30
2019-03-12T23:50:34.575Z,5.20
2019-03-12T23:53:01.160Z,5.10
2019-03-12T23:55:27.756Z,5.10
2019-03-12T23:57:54.182Z,5.10
